sensor_id;sensor_type;location;lat;lon;timestamp;P1;durP1;ratioP1;P2;durP2;ratioP2
1682;SDS011;13252;53.596;10.060;2023-05-06T00:00:03;12.50;;;4.87;;
1682;SDS011;13252;53.596;10.060;2023-05-06T00:02:37;12.43;;;5.20;;
1682;SDS011;13252;53.596;10.060;2023-05-06T00:05:08;8.07;;;4.47;;
1682;SDS011;13252;53.596;10.060;2023-05-06T00:07:39;13.33;;;5.07;;
1682;SDS011;13252;53.596;10.060;2023-05-06T00:10:07;11.20;;;6.00;;
1682;SDS011;13252;53.596;10.060;2023-05-06T00:12:35;16.20;;;4.93;;
1682;SDS011;13252;53.596;10.060;2023-05-06T00:15:05;10.23;;;4.90;;
1682;SDS011;13252;53.596;10.060;2023-05-06T00:17:34;8.40;;;4.23;;
1682;SDS011;13252;53.596;10.060;2023-05-06T00:20:01;7.27;;;5.03;;
1682;SDS011;13252;53.596;10.060;2023-05-06T00:22:29;9.90;;;5.27;;
1682;SDS011;13252;53.596;10.060;2023-05-06T00:24:57;9.80;;;4.90;;
1682;SDS011;13252;53.596;10.060;2023-05-06T00:27:24;9.07;;;5.60;;
1682;SDS011;13252;53.596;10.060;2023-05-06T00:29:52;10.87;;;4.93;;
1682;SDS011;13252;53.596;10.060;2023-05-06T00:32:21;11.20;;;4.80;;
1682;SDS011;13252;53.596;10.060;2023-05-06T00:34:49;10.73;;;5.10;;
1682;SDS011;13252;53.596;10.060;2023-05-06T00:37:17;12.43;;;4.37;;
1682;SDS011;13252;53.596;10.060;2023-05-06T00:39:44;9.27;;;4.37;;
1682;SDS011;13252;53.596;10.060;2023-05-06T00:42:12;7.17;;;4.60;;
1682;SDS011;13252;53.596;10.060;2023-05-06T00:44:39;8.30;;;4.70;;
1682;SDS011;13252;53.596;10.060;2023-05-06T00:47:07;11.70;;;4.73;;
1682;SDS011;13252;53.596;10.060;2023-05-06T00:49:36;9.40;;;4.30;;
1682;SDS011;13252;53.596;10.060;2023-05-06T00:52:05;9.37;;;4.60;;
1682;SDS011;13252;53.596;10.060;2023-05-06T00:54:33;9.17;;;5.03;;
1682;SDS011;13252;53.596;10.060;2023-05-06T00:57:01;11.70;;;6.27;;
1682;SDS011;13252;53.596;10.060;2023-05-06T00:59:29;6.93;;;4.77;;
1682;SDS011;13252;53.596;10.060;2023-05-06T01:01:57;6.57;;;4.83;;
1682;SDS011;13252;53.596;10.060;2023-05-06T01:04:30;7.97;;;4.93;;
1682;SDS011;13252;53.596;10.060;2023-05-06T01:07:02;8.87;;;5.00;;
1682;SDS011;13252;53.596;10.060;2023-05-06T01:09:45;11.70;;;5.60;;
1682;SDS011;13252;53.596;10.060;2023-05-06T01:12:19;11.80;;;5.20;;
1682;SDS011;13252;53.596;10.060;2023-05-06T01:14:53;8.50;;;4.60;;
1682;SDS011;13252;53.596;10.060;2023-05-06T01:17:26;9.50;;;5.30;;
1682;SDS011;13252;53.596;10.060;2023-05-06T01:19:55;10.57;;;5.23;;
1682;SDS011;13252;53.596;10.060;2023-05-06T01:22:31;7.50;;;4.93;;
1682;SDS011;13252;53.596;10.060;2023-05-06T01:25:03;7.27;;;5.17;;
1682;SDS011;13252;53.596;10.060;2023-05-06T01:27:34;13.30;;;5.50;;
1682;SDS011;13252;53.596;10.060;2023-05-06T01:30:03;7.00;;;4.70;;
1682;SDS011;13252;53.596;10.060;2023-05-06T01:32:34;12.07;;;5.97;;
1682;SDS011;13252;53.596;10.060;2023-05-06T01:35:09;8.07;;;5.20;;
1682;SDS011;13252;53.596;10.060;2023-05-06T01:37:43;6.97;;;4.53;;
1682;SDS011;13252;53.596;10.060;2023-05-06T01:40:14;9.67;;;4.80;;
1682;SDS011;13252;53.596;10.060;2023-05-06T01:42:47;9.03;;;4.90;;
1682;SDS011;13252;53.596;10.060;2023-05-06T01:45:16;8.53;;;5.57;;
1682;SDS011;13252;53.596;10.060;2023-05-06T01:47:45;8.40;;;4.97;;
1682;SDS011;13252;53.596;10.060;2023-05-06T01:50:13;8.87;;;5.70;;
1682;SDS011;13252;53.596;10.060;2023-05-06T01:52:41;9.20;;;5.97;;
1682;SDS011;13252;53.596;10.060;2023-05-06T01:55:10;10.67;;;6.30;;
1682;SDS011;13252;53.596;10.060;2023-05-06T01:57:40;11.90;;;6.33;;
1682;SDS011;13252;53.596;10.060;2023-05-06T02:00:10;11.10;;;5.53;;
1682;SDS011;13252;53.596;10.060;2023-05-06T02:02:41;9.10;;;5.57;;
1682;SDS011;13252;53.596;10.060;2023-05-06T02:05:09;10.83;;;6.87;;
1682;SDS011;13252;53.596;10.060;2023-05-06T02:07:43;11.73;;;6.80;;
1682;SDS011;13252;53.596;10.060;2023-05-06T02:10:11;10.63;;;5.77;;
1682;SDS011;13252;53.596;10.060;2023-05-06T02:12:45;9.00;;;6.33;;
1682;SDS011;13252;53.596;10.060;2023-05-06T02:15:13;9.30;;;6.10;;
1682;SDS011;13252;53.596;10.060;2023-05-06T02:17:42;8.53;;;6.50;;
1682;SDS011;13252;53.596;10.060;2023-05-06T02:20:10;8.67;;;5.73;;
1682;SDS011;13252;53.596;10.060;2023-05-06T02:22:38;10.10;;;6.07;;
1682;SDS011;13252;53.596;10.060;2023-05-06T02:25:06;11.93;;;7.10;;
1682;SDS011;13252;53.596;10.060;2023-05-06T02:27:35;14.00;;;7.13;;
1682;SDS011;13252;53.596;10.060;2023-05-06T02:30:04;9.17;;;6.00;;
1682;SDS011;13252;53.596;10.060;2023-05-06T02:32:34;11.00;;;7.20;;
1682;SDS011;13252;53.596;10.060;2023-05-06T02:35:02;9.13;;;6.67;;
1682;SDS011;13252;53.596;10.060;2023-05-06T02:37:30;9.70;;;6.33;;
1682;SDS011;13252;53.596;10.060;2023-05-06T02:40:00;8.80;;;6.93;;
1682;SDS011;13252;53.596;10.060;2023-05-06T02:42:30;8.90;;;6.40;;
1682;SDS011;13252;53.596;10.060;2023-05-06T02:44:58;9.90;;;6.43;;
1682;SDS011;13252;53.596;10.060;2023-05-06T02:47:27;10.53;;;6.33;;
1682;SDS011;13252;53.596;10.060;2023-05-06T02:49:54;14.40;;;6.40;;
1682;SDS011;13252;53.596;10.060;2023-05-06T02:52:22;9.60;;;6.17;;
1682;SDS011;13252;53.596;10.060;2023-05-06T02:54:49;11.10;;;5.57;;
1682;SDS011;13252;53.596;10.060;2023-05-06T02:57:17;10.20;;;6.90;;
1682;SDS011;13252;53.596;10.060;2023-05-06T02:59:45;11.50;;;6.00;;
1682;SDS011;13252;53.596;10.060;2023-05-06T03:02:12;9.40;;;6.60;;
1682;SDS011;13252;53.596;10.060;2023-05-06T03:04:41;13.67;;;6.70;;
1682;SDS011;13252;53.596;10.060;2023-05-06T03:07:09;10.20;;;5.97;;
1682;SDS011;13252;53.596;10.060;2023-05-06T03:09:38;9.50;;;7.00;;
1682;SDS011;13252;53.596;10.060;2023-05-06T03:12:06;9.63;;;6.27;;
1682;SDS011;13252;53.596;10.060;2023-05-06T03:14:34;10.27;;;6.50;;
1682;SDS011;13252;53.596;10.060;2023-05-06T03:17:01;9.23;;;6.40;;
1682;SDS011;13252;53.596;10.060;2023-05-06T03:19:33;9.37;;;6.60;;
1682;SDS011;13252;53.596;10.060;2023-05-06T03:22:02;10.97;;;6.17;;
1682;SDS011;13252;53.596;10.060;2023-05-06T03:24:31;10.70;;;6.90;;
1682;SDS011;13252;53.596;10.060;2023-05-06T03:27:01;12.27;;;6.50;;
1682;SDS011;13252;53.596;10.060;2023-05-06T03:29:30;10.33;;;6.87;;
1682;SDS011;13252;53.596;10.060;2023-05-06T03:32:00;12.50;;;7.47;;
1682;SDS011;13252;53.596;10.060;2023-05-06T03:34:30;11.37;;;6.13;;
1682;SDS011;13252;53.596;10.060;2023-05-06T03:36:59;12.63;;;6.70;;
1682;SDS011;13252;53.596;10.060;2023-05-06T03:39:29;9.87;;;6.20;;
1682;SDS011;13252;53.596;10.060;2023-05-06T03:41:58;11.30;;;6.20;;
1682;SDS011;13252;53.596;10.060;2023-05-06T03:44:26;10.10;;;5.93;;
1682;SDS011;13252;53.596;10.060;2023-05-06T03:46:54;12.17;;;7.70;;
1682;SDS011;13252;53.596;10.060;2023-05-06T03:49:22;8.00;;;5.80;;
1682;SDS011;13252;53.596;10.060;2023-05-06T03:51:50;9.63;;;6.50;;
1682;SDS011;13252;53.596;10.060;2023-05-06T03:54:20;9.20;;;6.73;;
1682;SDS011;13252;53.596;10.060;2023-05-06T03:56:49;11.33;;;7.10;;
1682;SDS011;13252;53.596;10.060;2023-05-06T03:59:17;9.27;;;6.47;;
1682;SDS011;13252;53.596;10.060;2023-05-06T04:01:45;11.37;;;6.20;;
1682;SDS011;13252;53.596;10.060;2023-05-06T04:04:13;12.83;;;7.10;;
1682;SDS011;13252;53.596;10.060;2023-05-06T04:06:42;11.63;;;6.63;;
1682;SDS011;13252;53.596;10.060;2023-05-06T04:09:10;9.00;;;6.10;;
1682;SDS011;13252;53.596;10.060;2023-05-06T04:11:38;9.70;;;6.47;;
1682;SDS011;13252;53.596;10.060;2023-05-06T04:14:10;7.90;;;6.13;;
1682;SDS011;13252;53.596;10.060;2023-05-06T04:16:38;9.87;;;6.70;;
1682;SDS011;13252;53.596;10.060;2023-05-06T04:19:06;11.87;;;6.73;;
1682;SDS011;13252;53.596;10.060;2023-05-06T04:21:34;9.03;;;6.90;;
1682;SDS011;13252;53.596;10.060;2023-05-06T04:24:08;9.10;;;7.40;;
1682;SDS011;13252;53.596;10.060;2023-05-06T04:26:37;12.97;;;6.83;;
1682;SDS011;13252;53.596;10.060;2023-05-06T04:29:06;12.30;;;7.20;;
1682;SDS011;13252;53.596;10.060;2023-05-06T04:31:41;7.60;;;6.13;;
1682;SDS011;13252;53.596;10.060;2023-05-06T04:34:11;14.40;;;7.27;;
1682;SDS011;13252;53.596;10.060;2023-05-06T04:36:38;10.90;;;7.73;;
1682;SDS011;13252;53.596;10.060;2023-05-06T04:39:13;7.43;;;6.00;;
1682;SDS011;13252;53.596;10.060;2023-05-06T04:41:41;11.77;;;6.93;;
1682;SDS011;13252;53.596;10.060;2023-05-06T04:44:13;12.00;;;7.40;;
1682;SDS011;13252;53.596;10.060;2023-05-06T04:46:44;9.00;;;6.50;;
1682;SDS011;13252;53.596;10.060;2023-05-06T04:49:13;12.77;;;7.47;;
1682;SDS011;13252;53.596;10.060;2023-05-06T04:51:41;11.10;;;6.77;;
1682;SDS011;13252;53.596;10.060;2023-05-06T04:54:09;15.03;;;6.40;;
1682;SDS011;13252;53.596;10.060;2023-05-06T04:56:37;10.40;;;8.00;;
1682;SDS011;13252;53.596;10.060;2023-05-06T04:59:07;8.50;;;6.43;;
1682;SDS011;13252;53.596;10.060;2023-05-06T05:01:36;11.53;;;6.80;;
1682;SDS011;13252;53.596;10.060;2023-05-06T05:04:05;11.90;;;6.50;;
1682;SDS011;13252;53.596;10.060;2023-05-06T05:06:32;13.70;;;8.60;;
1682;SDS011;13252;53.596;10.060;2023-05-06T05:09:00;11.20;;;6.93;;
1682;SDS011;13252;53.596;10.060;2023-05-06T05:11:28;12.30;;;6.57;;
1682;SDS011;13252;53.596;10.060;2023-05-06T05:13:58;10.07;;;6.63;;
1682;SDS011;13252;53.596;10.060;2023-05-06T05:16:28;8.30;;;6.67;;
1682;SDS011;13252;53.596;10.060;2023-05-06T05:18:56;11.40;;;7.83;;
1682;SDS011;13252;53.596;10.060;2023-05-06T05:21:28;8.20;;;7.30;;
1682;SDS011;13252;53.596;10.060;2023-05-06T05:23:57;11.70;;;8.40;;
1682;SDS011;13252;53.596;10.060;2023-05-06T05:26:25;15.80;;;8.37;;
1682;SDS011;13252;53.596;10.060;2023-05-06T05:28:54;12.47;;;8.23;;
1682;SDS011;13252;53.596;10.060;2023-05-06T05:31:22;9.43;;;7.80;;
1682;SDS011;13252;53.596;10.060;2023-05-06T05:33:50;9.47;;;7.50;;
1682;SDS011;13252;53.596;10.060;2023-05-06T05:36:20;8.60;;;7.77;;
1682;SDS011;13252;53.596;10.060;2023-05-06T05:38:53;10.03;;;8.17;;
1682;SDS011;13252;53.596;10.060;2023-05-06T05:41:23;14.60;;;8.27;;
1682;SDS011;13252;53.596;10.060;2023-05-06T05:43:53;11.10;;;8.47;;
1682;SDS011;13252;53.596;10.060;2023-05-06T05:46:21;11.13;;;8.63;;
1682;SDS011;13252;53.596;10.060;2023-05-06T05:48:53;12.33;;;8.03;;
1682;SDS011;13252;53.596;10.060;2023-05-06T05:51:21;12.03;;;7.93;;
1682;SDS011;13252;53.596;10.060;2023-05-06T05:53:50;8.97;;;7.47;;
1682;SDS011;13252;53.596;10.060;2023-05-06T05:56:21;14.87;;;8.30;;
1682;SDS011;13252;53.596;10.060;2023-05-06T05:58:49;9.27;;;8.30;;
1682;SDS011;13252;53.596;10.060;2023-05-06T06:01:17;15.83;;;9.80;;
1682;SDS011;13252;53.596;10.060;2023-05-06T06:03:45;19.63;;;8.53;;
1682;SDS011;13252;53.596;10.060;2023-05-06T06:06:13;11.03;;;7.67;;
1682;SDS011;13252;53.596;10.060;2023-05-06T06:08:41;11.60;;;8.93;;
1682;SDS011;13252;53.596;10.060;2023-05-06T06:11:11;17.23;;;9.27;;
1682;SDS011;13252;53.596;10.060;2023-05-06T06:13:41;15.17;;;8.10;;
1682;SDS011;13252;53.596;10.060;2023-05-06T06:16:09;12.63;;;8.07;;
1682;SDS011;13252;53.596;10.060;2023-05-06T06:18:37;14.90;;;8.83;;
1682;SDS011;13252;53.596;10.060;2023-05-06T06:21:05;16.90;;;7.87;;
1682;SDS011;13252;53.596;10.060;2023-05-06T06:23:33;10.47;;;9.30;;
1682;SDS011;13252;53.596;10.060;2023-05-06T06:26:01;13.53;;;8.40;;
1682;SDS011;13252;53.596;10.060;2023-05-06T06:28:31;10.67;;;8.40;;
1682;SDS011;13252;53.596;10.060;2023-05-06T06:31:00;14.27;;;8.13;;
1682;SDS011;13252;53.596;10.060;2023-05-06T06:33:28;14.20;;;9.03;;
1682;SDS011;13252;53.596;10.060;2023-05-06T06:35:55;18.13;;;8.50;;
1682;SDS011;13252;53.596;10.060;2023-05-06T06:38:23;11.40;;;8.73;;
1682;SDS011;13252;53.596;10.060;2023-05-06T06:40:51;12.23;;;8.47;;
1682;SDS011;13252;53.596;10.060;2023-05-06T06:43:19;10.20;;;8.77;;
1682;SDS011;13252;53.596;10.060;2023-05-06T06:46:01;10.40;;;8.23;;
1682;SDS011;13252;53.596;10.060;2023-05-06T06:48:29;17.20;;;7.93;;
1682;SDS011;13252;53.596;10.060;2023-05-06T06:50:56;9.77;;;7.63;;
1682;SDS011;13252;53.596;10.060;2023-05-06T06:53:24;14.70;;;8.00;;
1682;SDS011;13252;53.596;10.060;2023-05-06T06:55:52;11.73;;;8.00;;
1682;SDS011;13252;53.596;10.060;2023-05-06T06:58:19;14.83;;;8.10;;
1682;SDS011;13252;53.596;10.060;2023-05-06T07:00:47;8.07;;;7.27;;
1682;SDS011;13252;53.596;10.060;2023-05-06T07:03:16;9.40;;;8.27;;
1682;SDS011;13252;53.596;10.060;2023-05-06T07:05:45;11.60;;;8.13;;
1682;SDS011;13252;53.596;10.060;2023-05-06T07:08:12;10.30;;;8.13;;
1682;SDS011;13252;53.596;10.060;2023-05-06T07:10:42;9.53;;;8.20;;
1682;SDS011;13252;53.596;10.060;2023-05-06T07:13:09;16.80;;;8.53;;
1682;SDS011;13252;53.596;10.060;2023-05-06T07:15:37;10.63;;;8.40;;
1682;SDS011;13252;53.596;10.060;2023-05-06T07:18:05;10.80;;;8.20;;
1682;SDS011;13252;53.596;10.060;2023-05-06T07:20:34;9.47;;;7.50;;
1682;SDS011;13252;53.596;10.060;2023-05-06T07:23:01;11.60;;;8.50;;
1682;SDS011;13252;53.596;10.060;2023-05-06T07:25:29;19.03;;;8.80;;
1682;SDS011;13252;53.596;10.060;2023-05-06T07:27:57;10.20;;;7.73;;
1682;SDS011;13252;53.596;10.060;2023-05-06T07:30:25;15.80;;;9.33;;
1682;SDS011;13252;53.596;10.060;2023-05-06T07:32:52;10.93;;;8.40;;
1682;SDS011;13252;53.596;10.060;2023-05-06T07:35:20;10.10;;;8.57;;
1682;SDS011;13252;53.596;10.060;2023-05-06T07:37:49;13.73;;;8.07;;
1682;SDS011;13252;53.596;10.060;2023-05-06T07:40:17;11.10;;;8.37;;
1682;SDS011;13252;53.596;10.060;2023-05-06T07:42:45;11.60;;;8.53;;
1682;SDS011;13252;53.596;10.060;2023-05-06T07:47:50;9.97;;;8.07;;
1682;SDS011;13252;53.596;10.060;2023-05-06T07:50:18;13.57;;;9.43;;
1682;SDS011;13252;53.596;10.060;2023-05-06T07:52:46;14.83;;;9.07;;
1682;SDS011;13252;53.596;10.060;2023-05-06T07:55:15;10.40;;;7.93;;
1682;SDS011;13252;53.596;10.060;2023-05-06T07:57:43;10.37;;;7.60;;
1682;SDS011;13252;53.596;10.060;2023-05-06T08:00:11;11.73;;;8.57;;
1682;SDS011;13252;53.596;10.060;2023-05-06T08:02:41;10.30;;;8.00;;
1682;SDS011;13252;53.596;10.060;2023-05-06T08:05:10;9.93;;;7.07;;
1682;SDS011;13252;53.596;10.060;2023-05-06T08:07:38;13.70;;;8.87;;
1682;SDS011;13252;53.596;10.060;2023-05-06T08:10:08;13.10;;;7.63;;
1682;SDS011;13252;53.596;10.060;2023-05-06T08:12:37;10.47;;;7.87;;
1682;SDS011;13252;53.596;10.060;2023-05-06T08:15:06;8.23;;;7.43;;
1682;SDS011;13252;53.596;10.060;2023-05-06T08:17:35;14.33;;;8.90;;
1682;SDS011;13252;53.596;10.060;2023-05-06T08:20:03;15.93;;;8.83;;
1682;SDS011;13252;53.596;10.060;2023-05-06T08:22:31;12.67;;;8.60;;
1682;SDS011;13252;53.596;10.060;2023-05-06T08:24:59;12.13;;;9.10;;
1682;SDS011;13252;53.596;10.060;2023-05-06T08:27:26;12.70;;;8.23;;
1682;SDS011;13252;53.596;10.060;2023-05-06T08:29:55;10.67;;;7.93;;
1682;SDS011;13252;53.596;10.060;2023-05-06T08:32:23;11.67;;;8.43;;
1682;SDS011;13252;53.596;10.060;2023-05-06T08:34:52;10.80;;;8.30;;
1682;SDS011;13252;53.596;10.060;2023-05-06T08:37:19;13.80;;;7.90;;
1682;SDS011;13252;53.596;10.060;2023-05-06T08:39:47;10.00;;;7.67;;
1682;SDS011;13252;53.596;10.060;2023-05-06T08:42:15;15.60;;;8.77;;
1682;SDS011;13252;53.596;10.060;2023-05-06T08:44:44;16.77;;;8.50;;
1682;SDS011;13252;53.596;10.060;2023-05-06T08:47:13;17.50;;;8.63;;
1682;SDS011;13252;53.596;10.060;2023-05-06T08:49:41;14.53;;;8.47;;
1682;SDS011;13252;53.596;10.060;2023-05-06T08:52:08;13.13;;;8.90;;
1682;SDS011;13252;53.596;10.060;2023-05-06T08:54:36;13.83;;;9.13;;
1682;SDS011;13252;53.596;10.060;2023-05-06T08:57:04;13.00;;;9.50;;
1682;SDS011;13252;53.596;10.060;2023-05-06T08:59:32;11.30;;;7.90;;
1682;SDS011;13252;53.596;10.060;2023-05-06T09:02:00;10.33;;;8.30;;
1682;SDS011;13252;53.596;10.060;2023-05-06T09:04:30;13.17;;;9.50;;
1682;SDS011;13252;53.596;10.060;2023-05-06T09:06:58;12.47;;;9.27;;
1682;SDS011;13252;53.596;10.060;2023-05-06T09:09:26;14.97;;;9.83;;
1682;SDS011;13252;53.596;10.060;2023-05-06T09:11:53;13.07;;;9.10;;
1682;SDS011;13252;53.596;10.060;2023-05-06T09:14:23;10.87;;;9.07;;
1682;SDS011;13252;53.596;10.060;2023-05-06T09:16:51;12.33;;;9.30;;
1682;SDS011;13252;53.596;10.060;2023-05-06T09:19:19;13.57;;;9.27;;
1682;SDS011;13252;53.596;10.060;2023-05-06T09:21:49;14.87;;;9.80;;
1682;SDS011;13252;53.596;10.060;2023-05-06T09:24:18;14.77;;;10.57;;
1682;SDS011;13252;53.596;10.060;2023-05-06T09:26:46;12.07;;;9.80;;
1682;SDS011;13252;53.596;10.060;2023-05-06T09:29:14;13.37;;;9.27;;
1682;SDS011;13252;53.596;10.060;2023-05-06T09:31:42;12.10;;;9.23;;
1682;SDS011;13252;53.596;10.060;2023-05-06T09:34:11;14.90;;;8.70;;
1682;SDS011;13252;53.596;10.060;2023-05-06T09:36:39;14.33;;;9.53;;
1682;SDS011;13252;53.596;10.060;2023-05-06T09:39:09;10.00;;;8.50;;
1682;SDS011;13252;53.596;10.060;2023-05-06T09:41:37;14.03;;;8.43;;
1682;SDS011;13252;53.596;10.060;2023-05-06T09:44:04;13.03;;;9.43;;
1682;SDS011;13252;53.596;10.060;2023-05-06T09:46:32;11.37;;;8.73;;
1682;SDS011;13252;53.596;10.060;2023-05-06T09:49:00;9.73;;;8.23;;
1682;SDS011;13252;53.596;10.060;2023-05-06T09:51:29;17.87;;;9.87;;
1682;SDS011;13252;53.596;10.060;2023-05-06T09:53:58;14.00;;;10.10;;
1682;SDS011;13252;53.596;10.060;2023-05-06T09:56:27;13.93;;;9.23;;
1682;SDS011;13252;53.596;10.060;2023-05-06T09:58:56;14.50;;;9.17;;
1682;SDS011;13252;53.596;10.060;2023-05-06T10:01:26;13.50;;;10.20;;
1682;SDS011;13252;53.596;10.060;2023-05-06T10:04:03;15.57;;;8.80;;
1682;SDS011;13252;53.596;10.060;2023-05-06T10:06:34;14.63;;;10.10;;
1682;SDS011;13252;53.596;10.060;2023-05-06T10:09:04;12.90;;;10.20;;
1682;SDS011;13252;53.596;10.060;2023-05-06T10:11:34;11.70;;;9.73;;
1682;SDS011;13252;53.596;10.060;2023-05-06T10:14:02;13.47;;;10.13;;
1682;SDS011;13252;53.596;10.060;2023-05-06T10:16:30;15.47;;;9.40;;
1682;SDS011;13252;53.596;10.060;2023-05-06T10:19:01;12.83;;;8.47;;
1682;SDS011;13252;53.596;10.060;2023-05-06T10:21:30;15.80;;;10.80;;
1682;SDS011;13252;53.596;10.060;2023-05-06T10:24:01;21.93;;;12.07;;
1682;SDS011;13252;53.596;10.060;2023-05-06T10:26:36;17.17;;;11.77;;
1682;SDS011;13252;53.596;10.060;2023-05-06T10:29:05;17.13;;;11.10;;
1682;SDS011;13252;53.596;10.060;2023-05-06T10:31:36;20.70;;;11.00;;
1682;SDS011;13252;53.596;10.060;2023-05-06T10:34:06;18.23;;;11.33;;
1682;SDS011;13252;53.596;10.060;2023-05-06T10:36:36;14.50;;;10.40;;
1682;SDS011;13252;53.596;10.060;2023-05-06T10:39:05;11.47;;;9.27;;
1682;SDS011;13252;53.596;10.060;2023-05-06T10:41:37;14.03;;;10.27;;
1682;SDS011;13252;53.596;10.060;2023-05-06T10:44:05;14.00;;;11.07;;
1682;SDS011;13252;53.596;10.060;2023-05-06T10:46:33;18.50;;;11.07;;
1682;SDS011;13252;53.596;10.060;2023-05-06T10:49:24;12.90;;;9.43;;
1682;SDS011;13252;53.596;10.060;2023-05-06T10:52:11;16.40;;;10.37;;
1682;SDS011;13252;53.596;10.060;2023-05-06T10:54:45;11.17;;;8.87;;
1682;SDS011;13252;53.596;10.060;2023-05-06T10:57:15;11.50;;;8.00;;
1682;SDS011;13252;53.596;10.060;2023-05-06T10:59:43;14.40;;;9.70;;
1682;SDS011;13252;53.596;10.060;2023-05-06T11:02:12;11.83;;;8.30;;
1682;SDS011;13252;53.596;10.060;2023-05-06T11:04:40;17.03;;;8.83;;
1682;SDS011;13252;53.596;10.060;2023-05-06T11:07:09;13.17;;;8.80;;
1682;SDS011;13252;53.596;10.060;2023-05-06T11:09:53;15.50;;;9.57;;
1682;SDS011;13252;53.596;10.060;2023-05-06T11:12:28;15.27;;;10.60;;
1682;SDS011;13252;53.596;10.060;2023-05-06T11:15:23;14.00;;;9.77;;
1682;SDS011;13252;53.596;10.060;2023-05-06T11:17:52;12.60;;;8.83;;
1682;SDS011;13252;53.596;10.060;2023-05-06T11:20:22;11.23;;;9.50;;
1682;SDS011;13252;53.596;10.060;2023-05-06T11:22:50;16.47;;;10.70;;
1682;SDS011;13252;53.596;10.060;2023-05-06T11:25:37;22.73;;;9.87;;
1682;SDS011;13252;53.596;10.060;2023-05-06T11:28:08;13.10;;;9.50;;
1682;SDS011;13252;53.596;10.060;2023-05-06T11:30:36;11.10;;;8.70;;
1682;SDS011;13252;53.596;10.060;2023-05-06T11:33:08;16.60;;;10.00;;
1682;SDS011;13252;53.596;10.060;2023-05-06T11:35:39;14.13;;;10.10;;
1682;SDS011;13252;53.596;10.060;2023-05-06T11:38:07;13.93;;;9.97;;
1682;SDS011;13252;53.596;10.060;2023-05-06T11:40:35;13.10;;;8.60;;
1682;SDS011;13252;53.596;10.060;2023-05-06T11:43:10;15.07;;;9.40;;
1682;SDS011;13252;53.596;10.060;2023-05-06T11:45:39;15.30;;;9.57;;
1682;SDS011;13252;53.596;10.060;2023-05-06T11:48:09;11.30;;;8.53;;
1682;SDS011;13252;53.596;10.060;2023-05-06T11:50:37;13.90;;;8.67;;
1682;SDS011;13252;53.596;10.060;2023-05-06T11:53:05;14.27;;;9.77;;
1682;SDS011;13252;53.596;10.060;2023-05-06T11:55:34;14.70;;;9.40;;
1682;SDS011;13252;53.596;10.060;2023-05-06T11:58:02;13.13;;;8.80;;
1682;SDS011;13252;53.596;10.060;2023-05-06T12:00:31;9.20;;;7.90;;
1682;SDS011;13252;53.596;10.060;2023-05-06T12:02:59;19.13;;;9.33;;
1682;SDS011;13252;53.596;10.060;2023-05-06T12:05:29;12.97;;;9.27;;
1682;SDS011;13252;53.596;10.060;2023-05-06T12:07:56;11.23;;;8.97;;
1682;SDS011;13252;53.596;10.060;2023-05-06T12:10:24;12.77;;;9.60;;
1682;SDS011;13252;53.596;10.060;2023-05-06T12:12:52;15.00;;;10.30;;
1682;SDS011;13252;53.596;10.060;2023-05-06T12:15:20;14.03;;;10.60;;
1682;SDS011;13252;53.596;10.060;2023-05-06T12:17:49;13.87;;;10.00;;
1682;SDS011;13252;53.596;10.060;2023-05-06T12:20:17;16.10;;;10.77;;
1682;SDS011;13252;53.596;10.060;2023-05-06T12:22:45;13.83;;;9.30;;
1682;SDS011;13252;53.596;10.060;2023-05-06T12:25:13;13.63;;;10.03;;
1682;SDS011;13252;53.596;10.060;2023-05-06T12:27:42;12.93;;;9.57;;
1682;SDS011;13252;53.596;10.060;2023-05-06T12:30:11;13.37;;;10.13;;
1682;SDS011;13252;53.596;10.060;2023-05-06T12:35:26;18.73;;;10.87;;
1682;SDS011;13252;53.596;10.060;2023-05-06T12:37:54;16.53;;;11.27;;
1682;SDS011;13252;53.596;10.060;2023-05-06T12:40:22;17.73;;;11.20;;
1682;SDS011;13252;53.596;10.060;2023-05-06T12:42:53;18.27;;;11.80;;
1682;SDS011;13252;53.596;10.060;2023-05-06T12:45:21;14.57;;;9.60;;
1682;SDS011;13252;53.596;10.060;2023-05-06T12:47:52;13.17;;;9.60;;
1682;SDS011;13252;53.596;10.060;2023-05-06T12:50:31;14.20;;;10.47;;
1682;SDS011;13252;53.596;10.060;2023-05-06T12:53:00;13.80;;;10.63;;
1682;SDS011;13252;53.596;10.060;2023-05-06T12:55:29;14.17;;;11.63;;
1682;SDS011;13252;53.596;10.060;2023-05-06T12:57:57;16.60;;;10.57;;
1682;SDS011;13252;53.596;10.060;2023-05-06T13:00:24;13.37;;;9.83;;
1682;SDS011;13252;53.596;10.060;2023-05-06T13:02:52;17.27;;;10.03;;
1682;SDS011;13252;53.596;10.060;2023-05-06T13:05:21;13.50;;;10.10;;
1682;SDS011;13252;53.596;10.060;2023-05-06T13:07:50;21.70;;;9.97;;
1682;SDS011;13252;53.596;10.060;2023-05-06T13:10:19;17.10;;;9.70;;
1682;SDS011;13252;53.596;10.060;2023-05-06T13:12:47;12.50;;;10.53;;
1682;SDS011;13252;53.596;10.060;2023-05-06T13:15:14;13.40;;;9.63;;
1682;SDS011;13252;53.596;10.060;2023-05-06T13:17:42;13.17;;;9.10;;
1682;SDS011;13252;53.596;10.060;2023-05-06T13:20:10;16.67;;;9.63;;
1682;SDS011;13252;53.596;10.060;2023-05-06T13:22:39;15.20;;;10.00;;
1682;SDS011;13252;53.596;10.060;2023-05-06T13:25:20;12.40;;;9.47;;
1682;SDS011;13252;53.596;10.060;2023-05-06T13:27:48;15.77;;;11.40;;
1682;SDS011;13252;53.596;10.060;2023-05-06T13:30:16;13.00;;;9.27;;
1682;SDS011;13252;53.596;10.060;2023-05-06T13:32:44;13.73;;;9.40;;
1682;SDS011;13252;53.596;10.060;2023-05-06T13:35:11;21.00;;;8.97;;
1682;SDS011;13252;53.596;10.060;2023-05-06T13:37:39;13.40;;;9.50;;
1682;SDS011;13252;53.596;10.060;2023-05-06T13:40:07;15.13;;;9.60;;
1682;SDS011;13252;53.596;10.060;2023-05-06T13:42:38;18.43;;;9.20;;
1682;SDS011;13252;53.596;10.060;2023-05-06T13:45:07;14.17;;;8.43;;
1682;SDS011;13252;53.596;10.060;2023-05-06T13:47:35;15.23;;;10.03;;
1682;SDS011;13252;53.596;10.060;2023-05-06T13:50:03;15.07;;;10.00;;
1682;SDS011;13252;53.596;10.060;2023-05-06T13:52:31;13.83;;;9.30;;
1682;SDS011;13252;53.596;10.060;2023-05-06T13:54:59;14.17;;;10.20;;
1682;SDS011;13252;53.596;10.060;2023-05-06T13:57:27;15.60;;;10.17;;
1682;SDS011;13252;53.596;10.060;2023-05-06T13:59:56;19.07;;;11.60;;
1682;SDS011;13252;53.596;10.060;2023-05-06T14:02:23;14.13;;;10.90;;
1682;SDS011;13252;53.596;10.060;2023-05-06T14:04:51;15.50;;;11.07;;
1682;SDS011;13252;53.596;10.060;2023-05-06T14:07:20;14.23;;;10.80;;
1682;SDS011;13252;53.596;10.060;2023-05-06T14:09:48;13.97;;;10.60;;
1682;SDS011;13252;53.596;10.060;2023-05-06T14:12:15;16.57;;;10.80;;
1682;SDS011;13252;53.596;10.060;2023-05-06T14:14:43;13.83;;;11.30;;
1682;SDS011;13252;53.596;10.060;2023-05-06T14:17:12;15.60;;;11.20;;
1682;SDS011;13252;53.596;10.060;2023-05-06T14:19:40;18.10;;;12.00;;
1682;SDS011;13252;53.596;10.060;2023-05-06T14:22:08;17.77;;;11.83;;
1682;SDS011;13252;53.596;10.060;2023-05-06T14:24:36;17.13;;;11.63;;
1682;SDS011;13252;53.596;10.060;2023-05-06T14:27:03;18.33;;;11.80;;
1682;SDS011;13252;53.596;10.060;2023-05-06T14:29:31;19.90;;;11.87;;
1682;SDS011;13252;53.596;10.060;2023-05-06T14:31:59;15.20;;;11.60;;
1682;SDS011;13252;53.596;10.060;2023-05-06T14:34:29;14.63;;;11.20;;
1682;SDS011;13252;53.596;10.060;2023-05-06T14:36:57;12.97;;;10.70;;
1682;SDS011;13252;53.596;10.060;2023-05-06T14:39:24;15.20;;;11.20;;
1682;SDS011;13252;53.596;10.060;2023-05-06T14:41:52;12.67;;;11.33;;
1682;SDS011;13252;53.596;10.060;2023-05-06T14:44:20;13.63;;;10.40;;
1682;SDS011;13252;53.596;10.060;2023-05-06T14:46:48;13.60;;;9.97;;
1682;SDS011;13252;53.596;10.060;2023-05-06T14:49:16;13.20;;;10.83;;
1682;SDS011;13252;53.596;10.060;2023-05-06T14:51:45;13.13;;;9.67;;